KCXU

Camilla-Mitchell County Airport

Camilla, Georgia, USA
METAR KCXU 101455Z AUTO 00000KT 10SM BKN012 BKN018 OVC025 07/05 A3016 RMK AO1 T00720049
Observed Flight Rules
Dec-10 @ 14:55 UTC (22 minutes ago) Marginal Visual Flight Rules
Visibility Clouds
10 miles
  • Broken at 1,200' AGL
  • Broken at 1,800' AGL
  • Overcast at 2,500' AGL
Temperatures Readings
Current 7°C / 45°F
Dewpoint 5°C / 41°F
Humidity 87%
Altimeter 30.16" Hg
Pressure 1021 hPa
Elevation 53
METAR KCXU 101455Z AUTO 00000KT 10SM BKN012 BKN018 OVC025 07/05 A3016 RMK AO1 T00720049
Observed Flight Rules
Dec-10 @ 14:55 UTC
(22 minutes ago)
MVFR
Clouds
  • Broken at 1,200' AGL
  • Broken at 1,800' AGL
  • Overcast at 2,500' AGL
Temperature Dewpoint
7°C / 45°F 5°C / 41°F
Humidity Altimeter Pressure
87% 30.16" Hg 1021 hPa